Time,TemperatureF,DewpointF,PressureIn,WindDirection,WindDirectionDegrees,WindSpeedMPH,WindSpeedGustMPH,Humidity,HourlyPrecipIn,Conditions,Clouds,dailyrainin,SolarRadiationWatts/m^2,SoftwareType,DateUTC
2013-04-28 00:01:00,40.2,36.9,30.28,NW,319,0.0,0.0,88,0.00,CLR,,0.00,0.0,WeatherDisplay:10.37,2013-04-28 04:01:00,
2013-04-28 00:02:00,40.3,37.0,30.28,NW,319,0.0,0.0,88,0.00,CLR,,0.00,0.0,WeatherDisplay:10.37,2013-04-28 04:02:00,
2013-04-28 00:04:00,40.3,37.0,30.28,NW,319,0.0,0.0,88,0.00,CLR,,0.00,0.0,WeatherDisplay:10.37,2013-04-28 04:04:00,
2013-04-28 00:09:00,40.8,37.8,30.28,NW,319,0.0,0.0,89,0.00,CLR,,0.00,0.0,WeatherDisplay:10.37,2013-04-28 04:09:00,
2013-04-28 00:14:00,40.9,37.9,30.28,NW,319,0.0,0.0,89,0.00,CLR,,0.00,0.0,WeatherDisplay:10.37,2013-04-28 04:14:00,
2013-04-28 00:19:00,40.8,37.5,30.28,NW,319,1.2,1.2,88,0.00,CLR,,0.00,0.0,WeatherDisplay:10.37,2013-04-28 04:19:00,
2013-04-28 00:24:00,40.6,37.3,30.28,NW,313,1.2,0.0,88,0.00,CLR,,0.00,0.0,WeatherDisplay:10.37,2013-04-28 04:24:00,
2013-04-28 00:29:00,40.3,37.0,30.28,NW,313,0.0,0.0,88,0.00,CLR,,0.00,0.0,WeatherDisplay:10.37,2013-04-28 04:29:00,
2013-04-28 00:34:00,40.3,37.3,30.28,NW,313,1.2,0.0,89,0.00,CLR,,0.00,0.0,WeatherDisplay:10.37,2013-04-28 04:34:00,
2013-04-28 00:39:00,40.3,37.3,30.28,NW,313,0.0,0.0,89,0.00,CLR,,0.00,0.0,WeatherDisplay:10.37,2013-04-28 04:39:00,
2013-04-28 00:44:00,40.2,37.2,30.28,NW,313,0.0,0.0,89,0.00,CLR,,0.00,0.0,WeatherDisplay:10.37,2013-04-28 04:44:00,
2013-04-28 00:49:00,40.1,37.1,30.28,NW,314,0.0,0.0,89,0.00,CLR,,0.00,0.0,WeatherDisplay:10.37,2013-04-28 04:49:00,
2013-04-28 00:54:00,39.9,36.9,30.28,NW,314,0.0,0.0,89,0.00,CLR,,0.00,0.0,WeatherDisplay:10.37,2013-04-28 04:54:00,
2013-04-28 00:59:00,39.9,37.2,30.28,NW,314,1.2,0.0,90,0.00,CLR,,0.00,0.0,WeatherDisplay:10.37,2013-04-28 04:59:00,
2013-04-28 01:04:00,39.8,36.8,30.28,NW,314,0.0,0.0,89,0.00,CLR,,0.00,0.0,WeatherDisplay:10.37,2013-04-28 05:04:00,
2013-04-28 01:09:00,39.8,36.8,30.28,NW,314,0.0,0.0,89,0.00,CLR,,0.00,0.0,WeatherDisplay:10.37,2013-04-28 05:09:00,
2013-04-28 01:14:00,39.9,37.2,30.28,NW,314,0.0,0.0,90,0.00,CLR,,0.00,0.0,WeatherDisplay:10.37,2013-04-28 05:14:00,
2013-04-28 01:19:00,39.6,36.6,30.28,NW,314,0.0,0.0,89,0.00,CLR,,0.00,0.0,WeatherDisplay:10.37,2013-04-28 05:19:00,
2013-04-28 01:24:00,39.3,36.3,30.28,NW,314,0.0,0.0,89,0.00,CLR,,0.00,0.0,WeatherDisplay:10.37,2013-04-28 05:24:00,
2013-04-28 01:29:00,39.2,36.2,30.28,NW,314,0.0,0.0,89,0.00,CLR,,0.00,0.0,WeatherDisplay:10.37,2013-04-28 05:29:00,
2013-04-28 01:34:00,39.1,36.4,30.28,NW,314,0.0,0.0,90,0.00,CLR,,0.00,0.0,WeatherDisplay:10.37,2013-04-28 05:34:00,
2013-04-28 01:39:00,38.9,36.2,30.28,NW,314,0.0,0.0,90,0.00,CLR,,0.00,0.0,WeatherDisplay:10.37,2013-04-28 05:39:00,
2013-04-28 01:44:00,38.8,36.1,30.28,NW,314,1.2,0.0,90,0.00,CLR,,0.00,0.0,WeatherDisplay:10.37,2013-04-28 05:44:00,
2013-04-28 01:49:00,38.6,35.9,30.28,NW,314,0.0,0.0,90,0.00,CLR,,0.00,0.0,WeatherDisplay:10.37,2013-04-28 05:49:00,
2013-04-28 01:54:00,38.3,35.6,30.28,NW,314,0.0,0.0,90,0.00,CLR,,0.00,0.0,WeatherDisplay:10.37,2013-04-28 05:54:00,
2013-04-28 01:59:00,38.2,35.5,30.27,NW,314,0.0,0.0,90,0.00,CLR,,0.00,0.0,WeatherDisplay:10.37,2013-04-28 05:59:00,
2013-04-28 02:04:00,38.2,35.8,30.27,NW,314,0.0,0.0,91,0.00,CLR,,0.00,0.0,WeatherDisplay:10.37,2013-04-28 06:04:00,
2013-04-28 02:09:00,38.0,35.6,30.27,NW,314,0.0,0.0,91,0.00,CLR,,0.00,0.0,WeatherDisplay:10.37,2013-04-28 06:09:00,
2013-04-28 02:14:00,37.9,35.5,30.27,NW,314,0.0,0.0,91,0.00,CLR,,0.00,0.0,WeatherDisplay:10.37,2013-04-28 06:14:00,
2013-04-28 02:19:00,37.9,35.5,30.27,NW,314,0.0,0.0,91,0.00,CLR,,0.00,0.0,WeatherDisplay:10.37,2013-04-28 06:19:00,
2013-04-28 02:24:00,37.8,35.4,30.27,NW,314,0.0,0.0,91,0.00,CLR,,0.00,0.0,WeatherDisplay:10.37,2013-04-28 06:24:00,
2013-04-28 02:29:00,37.8,35.4,30.27,NW,314,0.0,0.0,91,0.00,CLR,,0.00,0.0,WeatherDisplay:10.37,2013-04-28 06:29:00,
2013-04-28 02:34:00,37.6,35.2,30.27,NW,314,0.0,0.0,91,0.00,CLR,,0.00,0.0,WeatherDisplay:10.37,2013-04-28 06:34:00,
2013-04-28 02:39:00,37.5,35.1,30.27,NW,314,0.0,0.0,91,0.00,CLR,,0.00,0.0,WeatherDisplay:10.37,2013-04-28 06:39:00,
2013-04-28 02:44:00,37.3,34.9,30.27,NW,314,0.0,0.0,91,0.00,CLR,,0.00,0.0,WeatherDisplay:10.37,2013-04-28 06:44:00,
2013-04-28 02:49:00,37.2,34.8,30.27,NW,314,0.0,0.0,91,0.00,CLR,,0.00,0.0,WeatherDisplay:10.37,2013-04-28 06:49:00,
2013-04-28 02:54:00,37.0,34.6,30.27,NW,314,0.0,0.0,91,0.00,CLR,,0.00,0.0,WeatherDisplay:10.37,2013-04-28 06:54:00,
2013-04-28 02:59:00,36.9,34.8,30.26,NW,314,0.0,0.0,92,0.00,CLR,,0.00,0.0,WeatherDisplay:10.37,2013-04-28 06:59:00,
2013-04-28 03:04:00,37.0,34.9,30.26,NW,314,0.0,0.0,92,0.00,CLR,,0.00,0.0,WeatherDisplay:10.37,2013-04-28 07:04:00,
2013-04-28 03:09:00,37.0,34.9,30.26,NW,314,0.0,0.0,92,0.00,CLR,,0.00,0.0,WeatherDisplay:10.37,2013-04-28 07:09:00,
2013-04-28 03:14:00,36.9,34.8,30.26,NW,314,0.0,0.0,92,0.00,CLR,,0.00,0.0,WeatherDisplay:10.37,2013-04-28 07:14:00,
2013-04-28 03:19:00,36.8,34.7,30.26,NW,314,0.0,0.0,92,0.00,CLR,,0.00,0.0,WeatherDisplay:10.37,2013-04-28 07:19:00,
2013-04-28 03:24:00,36.6,34.5,30.26,NW,314,0.0,0.0,92,0.00,CLR,,0.00,0.0,WeatherDisplay:10.37,2013-04-28 07:24:00,
2013-04-28 03:29:00,36.6,34.5,30.25,NW,314,0.0,0.0,92,0.00,CLR,,0.00,0.0,WeatherDisplay:10.37,2013-04-28 07:29:00,
2013-04-28 03:34:00,36.5,34.4,30.25,NW,314,0.0,0.0,92,0.00,CLR,,0.00,0.0,WeatherDisplay:10.37,2013-04-28 07:34:00,
2013-04-28 03:39:00,36.5,34.4,30.25,NW,314,0.0,0.0,92,0.00,CLR,,0.00,0.0,WeatherDisplay:10.37,2013-04-28 07:39:00,
2013-04-28 03:44:00,36.3,34.2,30.26,NW,314,0.0,0.0,92,0.00,CLR,,0.00,0.0,WeatherDisplay:10.37,2013-04-28 07:44:00,
2013-04-28 03:49:00,36.2,34.1,30.26,NW,314,0.0,0.0,92,0.00,CLR,,0.00,0.0,WeatherDisplay:10.37,2013-04-28 07:49:00,
2013-04-28 03:54:00,36.2,34.1,30.26,NW,314,0.0,0.0,92,0.00,CLR,,0.00,0.0,WeatherDisplay:10.37,2013-04-28 07:54:00,
2013-04-28 03:59:00,36.0,33.9,30.26,NW,314,0.0,0.0,92,0.00,CLR,,0.00,0.0,WeatherDisplay:10.37,2013-04-28 07:59:00,
2013-04-28 04:04:00,36.0,33.9,30.26,NW,314,0.0,0.0,92,0.00,CLR,,0.00,0.0,WeatherDisplay:10.37,2013-04-28 08:04:00,
2013-04-28 04:09:00,35.9,33.8,30.26,NW,314,1.2,0.0,92,0.00,CLR,,0.00,0.0,WeatherDisplay:10.37,2013-04-28 08:09:00,
2013-04-28 04:14:00,35.9,33.8,30.25,NW,314,1.2,0.0,92,0.00,CLR,,0.00,0.0,WeatherDisplay:10.37,2013-04-28 08:14:00,
2013-04-28 04:19:00,35.8,33.7,30.25,NNE,18,0.0,0.0,92,0.00,CLR,,0.00,0.0,WeatherDisplay:10.37,2013-04-28 08:19:00,
2013-04-28 04:24:00,35.6,33.5,30.25,NNE,19,1.2,0.0,92,0.00,CLR,,0.00,0.0,WeatherDisplay:10.37,2013-04-28 08:24:00,
2013-04-28 04:29:00,35.6,33.5,30.26,NNE,19,0.0,0.0,92,0.00,CLR,,0.00,0.0,WeatherDisplay:10.37,2013-04-28 08:29:00,
2013-04-28 04:34:00,35.6,33.5,30.26,NNE,19,0.0,0.0,92,0.00,CLR,,0.00,0.0,WeatherDisplay:10.37,2013-04-28 08:34:00,
2013-04-28 04:39:00,35.6,33.5,30.26,NNE,19,1.2,0.0,92,0.00,CLR,,0.00,0.0,WeatherDisplay:10.37,2013-04-28 08:39:00,
2013-04-28 04:44:00,35.6,33.8,30.26,East,87,3.5,3.5,93,0.00,CLR,,0.00,0.0,WeatherDisplay:10.37,2013-04-28 08:44:00,
2013-04-28 04:49:00,35.6,33.8,30.26,East,87,1.2,0.0,93,0.00,CLR,,0.00,0.0,WeatherDisplay:10.37,2013-04-28 08:49:00,
2013-04-28 04:54:00,35.8,34.0,30.26,East,87,2.0,2.0,93,0.00,CLR,,0.00,0.0,WeatherDisplay:10.37,2013-04-28 08:54:00,
2013-04-28 04:59:00,35.9,34.1,30.26,East,87,1.2,0.0,93,0.00,CLR,,0.00,0.0,WeatherDisplay:10.37,2013-04-28 08:59:00,
2013-04-28 05:04:00,35.9,34.1,30.26,East,85,2.3,2.3,93,0.00,CLR,,0.00,0.0,WeatherDisplay:10.37,2013-04-28 09:04:00,
2013-04-28 05:09:00,36.0,34.2,30.26,East,84,2.0,2.0,93,0.00,CLR,,0.00,0.0,WeatherDisplay:10.37,2013-04-28 09:09:00,
2013-04-28 05:14:00,36.3,34.5,30.25,East,86,3.5,0.0,93,0.00,CLR,,0.00,0.0,WeatherDisplay:10.37,2013-04-28 09:14:00,
2013-04-28 05:19:00,36.6,34.8,30.25,East,85,4.0,4.0,93,0.00,CLR,,0.00,0.0,WeatherDisplay:10.37,2013-04-28 09:19:00,
2013-04-28 05:24:00,36.8,35.0,30.25,East,86,3.5,3.5,93,0.00,CLR,,0.00,0.0,WeatherDisplay:10.37,2013-04-28 09:24:00,
2013-04-28 05:29:00,37.0,35.2,30.25,East,86,1.0,1.0,93,0.00,CLR,,0.00,0.0,WeatherDisplay:10.37,2013-04-28 09:29:00,
2013-04-28 05:34:00,37.3,35.5,30.25,East,94,2.0,2.0,93,0.00,CLR,,0.00,0.0,WeatherDisplay:10.37,2013-04-28 09:34:00,
2013-04-28 05:39:00,37.6,35.8,30.25,East,94,2.3,2.3,93,0.00,CLR,,0.00,0.0,WeatherDisplay:10.37,2013-04-28 09:39:00,
2013-04-28 05:44:00,38.3,36.7,30.25,ENE,57,3.5,0.0,94,0.00,CLR,,0.00,0.0,WeatherDisplay:10.37,2013-04-28 09:44:00,
2013-04-28 05:49:00,38.6,36.8,30.25,ESE,109,4.0,4.0,93,0.00,CLR,,0.00,0.0,WeatherDisplay:10.37,2013-04-28 09:49:00,
2013-04-28 05:54:00,39.2,37.6,30.25,East,92,3.5,3.5,94,0.00,CLR,,0.00,0.0,WeatherDisplay:10.37,2013-04-28 09:54:00,
2013-04-28 05:59:00,39.8,37.9,30.26,East,94,1.2,1.2,93,0.00,CLR,,0.00,0.0,WeatherDisplay:10.37,2013-04-28 09:59:00,
2013-04-28 06:04:00,40.1,38.0,30.26,East,89,3.5,3.5,92,0.00,CLR,,0.00,5.0,WeatherDisplay:10.37,2013-04-28 10:04:00,
2013-04-28 06:09:00,40.3,37.9,30.26,East,89,3.0,3.0,91,0.00,CLR,,0.00,9.0,WeatherDisplay:10.37,2013-04-28 10:09:00,
2013-04-28 06:14:00,40.5,37.8,30.26,East,87,2.3,0.0,90,0.00,CLR,,0.00,11.0,WeatherDisplay:10.37,2013-04-28 10:14:00,
2013-04-28 06:19:00,40.3,37.3,30.26,East,84,5.0,5.0,89,0.00,CLR,,0.00,16.0,WeatherDisplay:10.37,2013-04-28 10:19:00,
2013-04-28 06:24:00,40.5,37.5,30.26,East,85,3.5,3.5,89,0.00,CLR,,0.00,19.0,WeatherDisplay:10.37,2013-04-28 10:24:00,
2013-04-28 06:29:00,40.6,37.3,30.26,East,98,3.5,3.5,88,0.00,CLR,,0.00,23.0,WeatherDisplay:10.37,2013-04-28 10:29:00,
2013-04-28 06:34:00,41.1,37.5,30.26,East,94,3.5,3.5,87,0.00,CLR,,0.00,26.0,WeatherDisplay:10.37,2013-04-28 10:34:00,
2013-04-28 06:39:00,41.5,37.6,30.26,East,88,3.5,3.5,86,0.00,CLR,,0.00,32.0,WeatherDisplay:10.37,2013-04-28 10:39:00,
2013-04-28 06:44:00,42.1,37.6,30.26,ENE,73,4.0,4.0,84,0.00,CLR,,0.00,39.0,WeatherDisplay:10.37,2013-04-28 10:44:00,
2013-04-28 06:49:00,42.8,37.7,30.26,ENE,69,7.0,7.0,82,0.00,CLR,,0.00,51.0,WeatherDisplay:10.37,2013-04-28 10:49:00,
2013-04-28 06:54:00,43.5,38.1,30.26,East,90,4.6,4.6,81,0.00,CLR,,0.00,63.0,WeatherDisplay:10.37,2013-04-28 10:54:00,
2013-04-28 06:59:00,44.3,37.9,30.26,East,85,6.0,6.0,78,0.00,CLR,,0.00,76.0,WeatherDisplay:10.37,2013-04-28 10:59:00,
2013-04-28 07:04:00,44.9,38.1,30.26,East,94,9.2,9.2,77,0.00,CLR,,0.00,86.0,WeatherDisplay:10.37,2013-04-28 11:04:00,
2013-04-28 07:09:00,45.5,38.0,30.26,East,89,9.2,9.2,75,0.00,CLR,,0.00,100.0,WeatherDisplay:10.37,2013-04-28 11:09:00,
2013-04-28 07:14:00,46.2,38.0,30.26,East,100,6.9,6.9,73,0.00,CLR,,0.00,114.0,WeatherDisplay:10.37,2013-04-28 11:14:00,
2013-04-28 07:19:00,46.5,38.0,30.26,East,94,9.2,9.2,72,0.00,CLR,,0.00,127.0,WeatherDisplay:10.37,2013-04-28 11:19:00,
2013-04-28 07:24:00,47.1,38.2,30.26,East,92,9.2,9.2,71,0.00,CLR,,0.00,142.0,WeatherDisplay:10.37,2013-04-28 11:24:00,
2013-04-28 07:29:00,47.4,38.1,30.26,East,99,11.5,11.5,70,0.00,CLR,,0.00,167.0,WeatherDisplay:10.37,2013-04-28 11:29:00,
2013-04-28 07:34:00,47.9,38.6,30.26,ESE,105,11.0,11.0,70,0.00,CLR,,0.00,186.0,WeatherDisplay:10.37,2013-04-28 11:34:00,
2013-04-28 07:39:00,48.3,38.6,30.26,East,90,11.5,11.5,69,0.00,CLR,,0.00,200.0,WeatherDisplay:10.37,2013-04-28 11:39:00,
2013-04-28 07:44:00,48.6,38.1,30.26,East,90,7.0,7.0,67,0.00,CLR,,0.00,218.0,WeatherDisplay:10.37,2013-04-28 11:44:00,
2013-04-28 07:49:00,49.1,38.6,30.26,ESE,112,8.0,8.0,67,0.00,CLR,,0.00,236.0,WeatherDisplay:10.37,2013-04-28 11:49:00,
2013-04-28 07:54:00,49.5,39.0,30.26,ENE,73,7.0,7.0,67,0.00,CLR,,0.00,248.0,WeatherDisplay:10.37,2013-04-28 11:54:00,
2013-04-28 07:59:00,49.8,38.9,30.26,East,93,9.2,9.2,66,0.00,CLR,,0.00,265.0,WeatherDisplay:10.37,2013-04-28 11:59:00,
2013-04-28 08:04:00,50.1,39.6,30.26,East,87,8.0,8.0,67,0.00,CLR,,0.00,285.0,WeatherDisplay:10.37,2013-04-28 12:04:00,
2013-04-28 08:09:00,50.4,39.5,30.26,East,92,10.4,10.4,66,0.00,CLR,,0.00,299.0,WeatherDisplay:10.37,2013-04-28 12:09:00,
2013-04-28 08:14:00,51.0,40.0,30.26,ESE,118,6.0,6.0,66,0.00,CLR,,0.00,316.0,WeatherDisplay:10.37,2013-04-28 12:14:00,
2013-04-28 08:19:00,51.3,39.5,30.26,ESE,103,10.0,10.0,64,0.00,CLR,,0.00,334.0,WeatherDisplay:10.37,2013-04-28 12:19:00,
2013-04-28 08:24:00,51.6,39.4,30.26,East,89,11.5,11.5,63,0.00,CLR,,0.00,352.0,WeatherDisplay:10.37,2013-04-28 12:24:00,
2013-04-28 08:29:00,52.0,39.0,30.26,East,90,11.5,11.5,61,0.00,CLR,,0.00,366.0,WeatherDisplay:10.37,2013-04-28 12:29:00,
2013-04-28 08:34:00,52.8,39.7,30.26,ESE,104,12.0,12.0,61,0.00,CLR,,0.00,387.0,WeatherDisplay:10.37,2013-04-28 12:34:00,
2013-04-28 08:39:00,53.5,40.4,30.26,East,99,11.0,11.0,61,0.00,CLR,,0.00,401.0,WeatherDisplay:10.37,2013-04-28 12:39:00,
2013-04-28 08:44:00,54.2,40.2,30.26,East,86,13.0,13.0,59,0.00,CLR,,0.00,422.0,WeatherDisplay:10.37,2013-04-28 12:44:00,
2013-04-28 08:49:00,54.5,39.6,30.26,East,89,8.1,8.1,57,0.00,CLR,,0.00,434.0,WeatherDisplay:10.37,2013-04-28 12:49:00,
2013-04-28 08:54:00,55.1,39.7,30.26,East,86,9.2,9.2,56,0.00,CLR,,0.00,452.0,WeatherDisplay:10.37,2013-04-28 12:54:00,
2013-04-28 08:59:00,55.6,40.1,30.26,East,93,8.0,8.0,56,0.00,CLR,,0.00,469.0,WeatherDisplay:10.37,2013-04-28 12:59:00,
2013-04-28 09:04:00,55.7,39.3,30.26,ESE,102,7.0,7.0,54,0.00,CLR,,0.00,482.0,WeatherDisplay:10.37,2013-04-28 13:04:00,
2013-04-28 09:09:00,56.3,40.3,30.26,SE,135,3.5,3.5,55,0.00,CLR,,0.00,501.0,WeatherDisplay:10.37,2013-04-28 13:09:00,
2013-04-28 09:14:00,57.0,41.0,30.26,ESE,110,6.0,6.0,55,0.00,CLR,,0.00,519.0,WeatherDisplay:10.37,2013-04-28 13:14:00,
2013-04-28 09:19:00,57.3,40.8,30.26,East,87,9.2,9.2,54,0.00,CLR,,0.00,526.0,WeatherDisplay:10.37,2013-04-28 13:19:00,
2013-04-28 09:24:00,57.2,39.7,30.26,East,87,7.0,7.0,52,0.00,CLR,,0.00,338.0,WeatherDisplay:10.37,2013-04-28 13:24:00,
2013-04-28 09:29:00,57.5,40.5,30.25,East,87,12.0,12.0,53,0.00,CLR,,0.00,533.0,WeatherDisplay:10.37,2013-04-28 13:29:00,
2013-04-28 09:34:00,58.0,41.4,30.25,East,88,6.0,6.0,54,0.00,CLR,,0.00,587.0,WeatherDisplay:10.37,2013-04-28 13:34:00,
2013-04-28 09:39:00,58.6,40.0,30.25,East,82,7.0,7.0,50,0.00,CLR,,0.00,598.0,WeatherDisplay:10.37,2013-04-28 13:39:00,
2013-04-28 09:44:00,58.7,40.1,30.26,ESE,113,4.6,4.6,50,0.00,CLR,,0.00,571.0,WeatherDisplay:10.37,2013-04-28 13:44:00,
2013-04-28 09:49:00,59.5,40.8,30.26,East,80,9.0,9.0,50,0.00,CLR,,0.00,613.0,WeatherDisplay:10.37,2013-04-28 13:49:00,
2013-04-28 09:54:00,59.8,41.6,30.26,East,91,7.0,7.0,51,0.00,CLR,,0.00,638.0,WeatherDisplay:10.37,2013-04-28 13:54:00,
2013-04-28 09:59:00,59.9,41.2,30.26,East,86,7.0,7.0,50,0.00,CLR,,0.00,619.0,WeatherDisplay:10.37,2013-04-28 13:59:00,
2013-04-28 10:04:00,60.5,42.3,30.26,East,89,5.0,5.0,51,0.00,CLR,,0.00,438.0,WeatherDisplay:10.37,2013-04-28 14:04:00,
2013-04-28 10:09:00,61.3,40.9,30.26,SSE,154,6.0,6.0,47,0.00,CLR,,0.00,629.0,WeatherDisplay:10.37,2013-04-28 14:09:00,
2013-04-28 10:14:00,62.0,41.0,30.25,ESE,103,7.0,7.0,46,0.00,CLR,,0.00,684.0,WeatherDisplay:10.37,2013-04-28 14:14:00,
2013-04-28 10:19:00,62.3,43.9,30.25,East,83,7.0,7.0,51,0.00,CLR,,0.00,608.0,WeatherDisplay:10.37,2013-04-28 14:19:00,
2013-04-28 10:24:00,62.1,41.6,30.25,ENE,67,8.1,8.1,47,0.00,CLR,,0.00,628.0,WeatherDisplay:10.37,2013-04-28 14:24:00,
2013-04-28 10:29:00,62.4,42.4,30.25,East,86,4.6,4.6,48,0.00,CLR,,0.00,626.0,WeatherDisplay:10.37,2013-04-28 14:29:00,
2013-04-28 10:34:00,63.4,44.4,30.25,East,94,6.0,6.0,50,0.00,CLR,,0.00,761.0,WeatherDisplay:10.37,2013-04-28 14:34:00,
2013-04-28 10:39:00,63.9,41.0,30.25,ESE,121,6.0,6.0,43,0.00,CLR,,0.00,744.0,WeatherDisplay:10.37,2013-04-28 14:39:00,
2013-04-28 10:44:00,64.3,42.5,30.24,East,87,5.8,5.8,45,0.00,CLR,,0.00,710.0,WeatherDisplay:10.37,2013-04-28 14:44:00,
2013-04-28 10:49:00,64.7,41.1,30.24,SE,142,3.5,3.5,42,0.00,CLR,,0.00,758.0,WeatherDisplay:10.37,2013-04-28 14:49:00,
2013-04-28 10:54:00,65.2,42.7,30.24,ENE,57,8.1,8.1,44,0.00,CLR,,0.00,777.0,WeatherDisplay:10.37,2013-04-28 14:54:00,
2013-04-28 10:59:00,65.0,41.3,30.24,NE,56,6.9,6.9,42,0.00,CLR,,0.00,803.0,WeatherDisplay:10.37,2013-04-28 14:59:00,
2013-04-28 11:04:00,65.6,43.7,30.24,SE,144,7.0,7.0,45,0.00,CLR,,0.00,766.0,WeatherDisplay:10.37,2013-04-28 15:04:00,
2013-04-28 11:09:00,66.1,39.7,30.24,East,86,8.1,8.1,38,0.00,CLR,,0.00,812.0,WeatherDisplay:10.37,2013-04-28 15:09:00,
2013-04-28 11:14:00,66.4,42.6,30.23,East,86,11.5,11.5,42,0.00,CLR,,0.00,830.0,WeatherDisplay:10.37,2013-04-28 15:14:00,
2013-04-28 11:19:00,66.4,41.3,30.23,ENE,78,7.0,7.0,40,0.00,CLR,,0.00,844.0,WeatherDisplay:10.37,2013-04-28 15:19:00,
2013-04-28 11:24:00,66.9,41.8,30.23,East,89,7.0,7.0,40,0.00,CLR,,0.00,805.0,WeatherDisplay:10.37,2013-04-28 15:24:00,
2013-04-28 11:29:00,67.3,42.1,30.22,East,100,6.0,6.0,40,0.00,CLR,,0.00,810.0,WeatherDisplay:10.37,2013-04-28 15:29:00,
2013-04-28 11:34:00,67.6,41.1,30.22,ESE,120,7.0,7.0,38,0.00,CLR,,0.00,851.0,WeatherDisplay:10.37,2013-04-28 15:34:00,
2013-04-28 11:39:00,67.9,39.2,30.22,ESE,109,4.0,4.0,35,0.00,CLR,,0.00,882.0,WeatherDisplay:10.37,2013-04-28 15:39:00,
2013-04-28 11:45:00,68.6,39.1,30.22,ESE,113,7.0,7.0,34,0.00,CLR,,0.00,879.0,WeatherDisplay:10.37,2013-04-28 15:45:00,
2013-04-28 11:50:00,69.1,38.0,30.22,South,172,7.0,7.0,32,0.00,CLR,,0.00,408.0,WeatherDisplay:10.37,2013-04-28 15:50:00,
2013-04-28 11:55:00,68.9,37.0,30.22,SE,137,8.1,8.1,31,0.00,CLR,,0.00,719.0,WeatherDisplay:10.37,2013-04-28 15:55:00,
2013-04-28 12:00:00,68.8,38.5,30.21,East,101,7.0,7.0,33,0.00,CLR,,0.00,875.0,WeatherDisplay:10.37,2013-04-28 16:00:00,
2013-04-28 12:05:00,69.3,38.9,30.21,ESE,108,10.4,10.4,33,0.00,CLR,,0.00,946.0,WeatherDisplay:10.37,2013-04-28 16:05:00,
2013-04-28 12:10:00,69.6,39.2,30.21,East,80,3.5,3.5,33,0.00,CLR,,0.00,939.0,WeatherDisplay:10.37,2013-04-28 16:10:00,
2013-04-28 12:15:00,69.9,41.0,30.20,East,101,10.0,10.0,35,0.00,CLR,,0.00,788.0,WeatherDisplay:10.37,2013-04-28 16:15:00,
2013-04-28 12:20:00,69.4,37.4,30.20,East,86,5.0,5.0,31,0.00,CLR,,0.00,930.0,WeatherDisplay:10.37,2013-04-28 16:20:00,
2013-04-28 12:25:00,69.8,42.3,30.20,ENE,74,5.8,5.8,37,0.00,CLR,,0.00,853.0,WeatherDisplay:10.37,2013-04-28 16:25:00,
2013-04-28 12:30:00,70.4,39.1,30.19,SSE,162,6.0,6.0,32,0.00,CLR,,0.00,926.0,WeatherDisplay:10.37,2013-04-28 16:30:00,
2013-04-28 12:35:00,70.8,37.0,30.19,ESE,119,13.8,13.8,29,0.00,CLR,,0.00,926.0,WeatherDisplay:10.37,2013-04-28 16:35:00,
2013-04-28 12:40:00,70.8,36.1,30.18,SE,143,7.0,7.0,28,0.00,CLR,,0.00,926.0,WeatherDisplay:10.37,2013-04-28 16:40:00,
2013-04-28 12:45:00,71.1,36.3,30.18,SSE,164,10.4,10.4,28,0.00,CLR,,0.00,930.0,WeatherDisplay:10.37,2013-04-28 16:45:00,
2013-04-28 12:50:00,71.3,36.5,30.18,SSE,165,12.7,12.7,28,0.00,CLR,,0.00,926.0,WeatherDisplay:10.37,2013-04-28 16:50:00,
2013-04-28 12:55:00,71.8,36.0,30.18,SSW,194,10.4,10.4,27,0.00,CLR,,0.00,930.0,WeatherDisplay:10.37,2013-04-28 16:55:00,
2013-04-28 13:00:00,72.3,37.4,30.17,SSE,159,12.0,12.0,28,0.00,CLR,,0.00,935.0,WeatherDisplay:10.37,2013-04-28 17:00:00,
2013-04-28 13:05:00,72.1,37.2,30.17,South,173,7.0,7.0,28,0.00,CLR,,0.00,933.0,WeatherDisplay:10.37,2013-04-28 17:05:00,
2013-04-28 13:10:00,72.3,37.4,30.17,SE,145,7.0,7.0,28,0.00,CLR,,0.00,933.0,WeatherDisplay:10.37,2013-04-28 17:10:00,
2013-04-28 13:15:00,72.0,33.2,30.17,South,177,1.2,1.2,24,0.00,CLR,,0.00,932.0,WeatherDisplay:10.37,2013-04-28 17:15:00,
2013-04-28 13:20:00,72.3,33.5,30.17,South,169,10.0,10.0,24,0.00,CLR,,0.00,932.0,WeatherDisplay:10.37,2013-04-28 17:20:00,
2013-04-28 13:25:00,72.5,34.7,30.17,South,175,11.5,11.5,25,0.00,CLR,,0.00,935.0,WeatherDisplay:10.37,2013-04-28 17:25:00,
2013-04-28 13:30:00,72.1,37.2,30.16,SSW,201,6.9,6.9,28,0.00,CLR,,0.00,932.0,WeatherDisplay:10.37,2013-04-28 17:30:00,
2013-04-28 13:35:00,72.1,40.6,30.16,ESE,122,10.0,10.0,32,0.00,CLR,,0.00,916.0,WeatherDisplay:10.37,2013-04-28 17:35:00,
2013-04-28 13:40:00,72.0,33.2,30.16,South,185,3.5,3.5,24,0.00,CLR,,0.00,928.0,WeatherDisplay:10.37,2013-04-28 17:40:00,
2013-04-28 13:45:00,72.3,35.5,30.16,East,91,9.0,9.0,26,0.00,CLR,,0.00,921.0,WeatherDisplay:10.37,2013-04-28 17:45:00,
2013-04-28 13:50:00,72.5,37.5,30.16,SSE,152,11.0,11.0,28,0.00,CLR,,0.00,923.0,WeatherDisplay:10.37,2013-04-28 17:50:00,
2013-04-28 13:55:00,72.3,32.4,30.15,SSE,165,10.4,10.4,23,0.00,CLR,,0.00,923.0,WeatherDisplay:10.37,2013-04-28 17:55:00,
2013-04-28 14:00:00,72.0,32.1,30.15,North,360,3.5,3.5,23,0.00,CLR,,0.00,919.0,WeatherDisplay:10.37,2013-04-28 18:00:00,
2013-04-28 14:05:00,72.1,34.3,30.15,SSE,150,7.0,7.0,25,0.00,CLR,,0.00,923.0,WeatherDisplay:10.37,2013-04-28 18:05:00,
2013-04-28 14:10:00,72.3,32.4,30.15,ENE,66,10.4,10.4,23,0.00,CLR,,0.00,919.0,WeatherDisplay:10.37,2013-04-28 18:10:00,
2013-04-28 14:15:00,72.3,35.5,30.15,SE,130,4.0,4.0,26,0.00,CLR,,0.00,921.0,WeatherDisplay:10.37,2013-04-28 18:15:00,
2013-04-28 14:20:00,72.7,33.8,30.15,ENE,75,4.6,4.6,24,0.00,CLR,,0.00,884.0,WeatherDisplay:10.37,2013-04-28 18:20:00,
2013-04-28 14:25:00,73.2,35.2,30.14,SE,140,11.5,11.5,25,0.00,CLR,,0.00,854.0,WeatherDisplay:10.37,2013-04-28 18:25:00,
2013-04-28 14:30:00,73.2,36.2,30.14,SSE,165,12.0,12.0,26,0.00,CLR,,0.00,854.0,WeatherDisplay:10.37,2013-04-28 18:30:00,
2013-04-28 14:35:00,73.2,38.1,30.14,South,189,6.0,6.0,28,0.00,CLR,,0.00,837.0,WeatherDisplay:10.37,2013-04-28 18:35:00,
2013-04-28 14:41:00,73.3,34.3,30.13,SSW,192,16.1,16.1,24,0.00,CLR,,0.00,802.0,WeatherDisplay:10.37,2013-04-28 18:41:00,
2013-04-28 14:46:00,73.2,36.2,30.13,ESE,106,9.0,9.0,26,0.00,CLR,,0.00,751.0,WeatherDisplay:10.37,2013-04-28 18:46:00,
2013-04-28 14:51:00,73.2,38.1,30.13,ESE,108,6.0,6.0,28,0.00,CLR,,0.00,715.0,WeatherDisplay:10.37,2013-04-28 18:51:00,
2013-04-28 14:56:00,73.0,33.0,30.13,East,98,8.1,8.1,23,0.00,CLR,,0.00,652.0,WeatherDisplay:10.37,2013-04-28 18:56:00,
2013-04-28 15:01:00,73.0,36.1,30.13,SE,132,11.0,11.0,26,0.00,CLR,,0.00,605.0,WeatherDisplay:10.37,2013-04-28 19:01:00,
2013-04-28 15:06:00,72.8,34.9,30.13,ESE,109,3.5,3.5,25,0.00,CLR,,0.00,628.0,WeatherDisplay:10.37,2013-04-28 19:06:00,
2013-04-28 15:11:00,73.0,34.1,30.12,SE,143,11.5,11.5,24,0.00,CLR,,0.00,640.0,WeatherDisplay:10.37,2013-04-28 19:11:00,
2013-04-28 15:16:00,73.2,34.2,30.12,SSW,192,6.0,6.0,24,0.00,CLR,,0.00,554.0,WeatherDisplay:10.37,2013-04-28 19:16:00,
2013-04-28 15:21:00,73.3,33.2,30.12,SSE,147,6.9,6.9,23,0.00,CLR,,0.00,686.0,WeatherDisplay:10.37,2013-04-28 19:21:00,
2013-04-28 15:26:00,73.2,34.2,30.12,South,187,4.6,4.6,24,0.00,CLR,,0.00,552.0,WeatherDisplay:10.37,2013-04-28 19:26:00,
2013-04-28 15:31:00,73.0,34.1,30.12,East,84,7.0,7.0,24,0.00,CLR,,0.00,652.0,WeatherDisplay:10.37,2013-04-28 19:31:00,
2013-04-28 15:36:00,73.0,35.1,30.12,SSE,161,10.0,10.0,25,0.00,CLR,,0.00,517.0,WeatherDisplay:10.37,2013-04-28 19:36:00,
2013-04-28 15:41:00,72.8,33.9,30.11,SE,129,14.0,14.0,24,0.00,CLR,,0.00,244.0,WeatherDisplay:10.37,2013-04-28 19:41:00,
2013-04-28 15:46:00,72.7,35.8,30.11,SE,135,7.0,7.0,26,0.00,CLR,,0.00,271.0,WeatherDisplay:10.37,2013-04-28 19:46:00,
2013-04-28 15:51:00,72.5,32.6,30.11,SE,125,11.5,11.5,23,0.00,CLR,,0.00,276.0,WeatherDisplay:10.37,2013-04-28 19:51:00,
2013-04-28 15:56:00,72.5,36.6,30.11,SSW,213,5.0,5.0,27,0.00,CLR,,0.00,246.0,WeatherDisplay:10.37,2013-04-28 19:56:00,
2013-04-28 16:01:00,72.5,35.6,30.11,SSE,155,4.0,4.0,26,0.00,CLR,,0.00,255.0,WeatherDisplay:10.37,2013-04-28 20:01:00,
2013-04-28 16:06:00,72.5,34.7,30.11,SSE,161,10.0,10.0,25,0.00,SCT,,0.00,287.0,WeatherDisplay:10.37,2013-04-28 20:06:00,
2013-04-28 16:11:00,72.5,33.6,30.10,East,99,10.4,10.4,24,0.00,SCT,,0.00,200.0,WeatherDisplay:10.37,2013-04-28 20:11:00,
2013-04-28 16:16:00,72.5,33.6,30.10,SSE,161,6.0,6.0,24,0.00,SCT,,0.00,341.0,WeatherDisplay:10.37,2013-04-28 20:16:00,
2013-04-28 16:21:00,72.7,34.8,30.10,SE,144,9.2,9.2,25,0.00,SCT,,0.00,287.0,WeatherDisplay:10.37,2013-04-28 20:21:00,
2013-04-28 16:26:00,72.8,33.9,30.10,SSE,149,9.2,9.2,24,0.00,SCT,,0.00,327.0,WeatherDisplay:10.37,2013-04-28 20:26:00,
2013-04-28 16:31:00,72.7,34.8,30.10,SSE,156,13.0,13.0,25,0.00,SCT,,0.00,292.0,WeatherDisplay:10.37,2013-04-28 20:31:00,
2013-04-28 16:36:00,72.7,33.8,30.10,SE,142,9.0,9.0,24,0.00,SCT,,0.00,292.0,WeatherDisplay:10.37,2013-04-28 20:36:00,
2013-04-28 16:41:00,72.5,35.6,30.09,South,170,13.0,13.0,26,0.00,SCT,,0.00,290.0,WeatherDisplay:10.37,2013-04-28 20:41:00,
2013-04-28 16:46:00,72.5,33.6,30.09,South,170,10.4,10.4,24,0.00,SCT,,0.00,294.0,WeatherDisplay:10.37,2013-04-28 20:46:00,
2013-04-28 16:51:00,72.5,35.6,30.09,SSE,162,9.2,9.2,26,0.00,SCT,,0.00,258.0,WeatherDisplay:10.37,2013-04-28 20:51:00,
2013-04-28 16:56:00,72.5,36.6,30.08,SE,125,9.2,9.2,27,0.00,SCT,,0.00,185.0,WeatherDisplay:10.37,2013-04-28 20:56:00,
2013-04-28 17:01:00,72.3,33.5,30.08,SSE,158,11.5,11.5,24,0.00,SCT,,0.00,165.0,WeatherDisplay:10.37,2013-04-28 21:01:00,
2013-04-28 17:06:00,72.3,34.5,30.08,SSE,150,6.0,6.0,25,0.00,OVC,,0.00,149.0,WeatherDisplay:10.37,2013-04-28 21:06:00,
2013-04-28 17:11:00,72.3,33.5,30.08,SE,131,9.2,9.2,24,0.00,OVC,,0.00,253.0,WeatherDisplay:10.37,2013-04-28 21:11:00,
2013-04-28 17:16:00,72.3,33.5,30.08,SE,126,4.6,4.6,24,0.00,OVC,,0.00,239.0,WeatherDisplay:10.37,2013-04-28 21:16:00,
2013-04-28 17:21:00,72.3,37.4,30.08,East,97,6.0,6.0,28,0.00,OVC,,0.00,225.0,WeatherDisplay:10.37,2013-04-28 21:21:00,
2013-04-28 17:26:00,72.3,35.5,30.08,East,87,6.9,6.9,26,0.00,OVC,,0.00,211.0,WeatherDisplay:10.37,2013-04-28 21:26:00,
2013-04-28 17:31:00,72.3,35.5,30.08,ENE,78,5.0,5.0,26,0.00,OVC,,0.00,206.0,WeatherDisplay:10.37,2013-04-28 21:31:00,
2013-04-28 17:36:00,71.8,36.9,30.08,East,87,10.4,10.4,28,0.00,OVC,,0.00,192.0,WeatherDisplay:10.37,2013-04-28 21:36:00,
2013-04-28 17:41:00,71.3,36.5,30.07,East,90,11.5,11.5,28,0.00,OVC,,0.00,192.0,WeatherDisplay:10.37,2013-04-28 21:41:00,
2013-04-28 17:46:00,70.9,36.1,30.07,ESE,106,11.0,11.0,28,0.00,OVC,,0.00,186.0,WeatherDisplay:10.37,2013-04-28 21:46:00,
2013-04-28 17:51:00,70.9,36.1,30.07,SE,144,7.0,7.0,28,0.00,OVC,,0.00,178.0,WeatherDisplay:10.37,2013-04-28 21:51:00,
2013-04-28 17:56:00,70.8,37.0,30.08,ESE,123,4.0,4.0,29,0.00,OVC,,0.00,163.0,WeatherDisplay:10.37,2013-04-28 21:56:00,
2013-04-28 18:01:00,70.8,37.0,30.08,East,82,4.0,4.0,29,0.00,OVC,,0.00,142.0,WeatherDisplay:10.37,2013-04-28 22:01:00,
2013-04-28 18:06:00,70.9,37.9,30.08,East,99,3.5,3.5,30,0.00,OVC,,0.00,102.0,WeatherDisplay:10.37,2013-04-28 22:06:00,
2013-04-28 18:11:00,70.8,36.1,30.08,ESE,112,3.5,3.5,28,0.00,OVC,,0.00,58.0,WeatherDisplay:10.37,2013-04-28 22:11:00,
2013-04-28 18:16:00,70.8,36.1,30.08,SE,133,7.0,7.0,28,0.00,OVC,,0.00,65.0,WeatherDisplay:10.37,2013-04-28 22:16:00,
2013-04-28 18:21:00,70.6,35.0,30.08,SE,143,10.0,10.0,27,0.00,OVC,,0.00,67.0,WeatherDisplay:10.37,2013-04-28 22:21:00,
2013-04-28 18:26:00,70.3,36.5,30.07,ESE,109,10.4,10.4,29,0.00,OVC,,0.00,62.0,WeatherDisplay:10.37,2013-04-28 22:26:00,
2013-04-28 18:31:00,69.9,36.2,30.07,ESE,110,3.5,3.5,29,0.00,OVC,,0.00,54.0,WeatherDisplay:10.37,2013-04-28 22:31:00,
2013-04-28 18:36:00,69.6,37.6,30.07,SE,128,5.0,5.0,31,0.00,OVC,,0.00,53.0,WeatherDisplay:10.37,2013-04-28 22:36:00,
2013-04-28 18:41:00,69.4,37.4,30.07,East,94,7.0,7.0,31,0.00,OVC,,0.00,54.0,WeatherDisplay:10.37,2013-04-28 22:41:00,
2013-04-28 18:46:00,69.3,37.3,30.07,East,91,7.0,7.0,31,0.00,OVC,,0.00,62.0,WeatherDisplay:10.37,2013-04-28 22:46:00,
2013-04-28 18:51:00,69.1,37.2,30.07,East,100,6.0,6.0,31,0.00,OVC,,0.00,60.0,WeatherDisplay:10.37,2013-04-28 22:51:00,
2013-04-28 18:56:00,68.8,36.9,30.07,ENE,76,10.4,10.4,31,0.00,OVC,,0.00,51.0,WeatherDisplay:10.37,2013-04-28 22:56:00,
2013-04-28 19:01:00,68.8,36.9,30.07,ESE,116,10.0,10.0,31,0.00,OVC,,0.00,44.0,WeatherDisplay:10.37,2013-04-28 23:01:00,
2013-04-28 19:06:00,68.8,37.7,30.07,SSE,160,4.0,4.0,32,0.00,OVC,,0.00,35.0,WeatherDisplay:10.37,2013-04-28 23:06:00,
2013-04-28 19:11:00,68.4,36.6,30.06,ESE,103,5.8,5.8,31,0.00,OVC,,0.00,30.0,WeatherDisplay:10.37,2013-04-28 23:11:00,
2013-04-28 19:16:00,68.3,37.3,30.06,ESE,116,5.0,5.0,32,0.00,OVC,,0.00,26.0,WeatherDisplay:10.37,2013-04-28 23:16:00,
2013-04-28 19:21:00,68.1,37.1,30.06,SE,132,4.0,4.0,32,0.00,OVC,,0.00,21.0,WeatherDisplay:10.37,2013-04-28 23:21:00,
2013-04-28 19:26:00,67.9,36.1,30.06,SSE,163,4.0,4.0,31,0.00,OVC,,0.00,18.0,WeatherDisplay:10.37,2013-04-28 23:26:00,
2013-04-28 19:31:00,67.9,39.2,30.06,SE,134,4.0,4.0,35,0.00,OVC,,0.00,14.0,WeatherDisplay:10.37,2013-04-28 23:31:00,
2013-04-28 19:36:00,67.4,41.6,30.06,SSE,154,4.0,4.0,39,0.00,OVC,,0.00,9.0,WeatherDisplay:10.37,2013-04-28 23:36:00,
2013-04-28 19:41:00,66.9,39.1,30.08,SSE,154,1.2,1.2,36,0.00,OVC,,0.00,5.0,WeatherDisplay:10.37,2013-04-28 23:41:00,
2013-04-28 19:46:00,66.8,37.5,30.08,SE,126,5.0,5.0,34,0.00,OVC,,0.00,0.0,WeatherDisplay:10.37,2013-04-28 23:46:00,
2013-04-28 19:51:00,66.9,40.5,30.08,ESE,117,2.3,2.3,38,0.00,OVC,,0.00,0.0,WeatherDisplay:10.37,2013-04-28 23:51:00,
2013-04-28 19:56:00,66.4,40.7,30.08,ESE,120,3.5,3.5,39,0.00,OVC,,0.00,0.0,WeatherDisplay:10.37,2013-04-28 23:56:00,
2013-04-28 20:01:00,66.0,41.6,30.08,ESE,122,5.0,5.0,41,0.00,OVC,,0.00,0.0,WeatherDisplay:10.37,2013-04-29 00:01:00,
2013-04-28 20:06:00,65.3,42.8,30.08,SE,137,4.6,4.6,44,0.00,BKN,,0.00,0.0,WeatherDisplay:10.37,2013-04-29 00:06:00,
2013-04-28 20:11:00,65.0,41.9,30.08,SE,137,3.5,3.5,43,0.00,BKN,,0.00,0.0,WeatherDisplay:10.37,2013-04-29 00:11:00,
2013-04-28 20:16:00,64.5,40.9,30.08,SSE,149,2.3,2.3,42,0.00,BKN,,0.00,0.0,WeatherDisplay:10.37,2013-04-29 00:16:00,
2013-04-28 20:21:00,64.0,41.0,30.08,SSE,149,1.2,1.2,43,0.00,BKN,,0.00,0.0,WeatherDisplay:10.37,2013-04-29 00:21:00,
2013-04-28 20:26:00,63.7,41.9,30.08,SSE,149,0.0,0.0,45,0.00,BKN,,0.00,0.0,WeatherDisplay:10.37,2013-04-29 00:26:00,
2013-04-28 20:31:00,63.2,42.1,30.08,SSE,149,0.0,0.0,46,0.00,BKN,,0.00,0.0,WeatherDisplay:10.37,2013-04-29 00:31:00,
2013-04-28 20:36:00,62.6,42.6,30.08,SSE,149,0.0,0.0,48,0.00,BKN,,0.00,0.0,WeatherDisplay:10.37,2013-04-29 00:36:00,
2013-04-28 20:41:00,62.0,43.1,30.08,SSE,149,2.0,2.0,50,0.00,BKN,,0.00,0.0,WeatherDisplay:10.37,2013-04-29 00:41:00,
2013-04-28 20:46:00,61.5,41.1,30.08,SSW,208,8.0,8.0,47,0.00,BKN,,0.00,0.0,WeatherDisplay:10.37,2013-04-29 00:46:00,
2013-04-28 20:51:00,61.6,41.2,30.08,South,169,1.2,1.2,47,0.00,BKN,,0.00,0.0,WeatherDisplay:10.37,2013-04-29 00:51:00,
2013-04-28 20:56:00,61.5,41.1,30.09,South,169,1.2,1.2,47,0.00,BKN,,0.00,0.0,WeatherDisplay:10.37,2013-04-29 00:56:00,
2013-04-28 21:01:00,61.2,40.8,30.09,South,169,0.0,0.0,47,0.00,BKN,,0.00,0.0,WeatherDisplay:10.37,2013-04-29 01:01:00,
2013-04-28 21:06:00,60.7,40.9,30.09,South,169,0.0,0.0,48,0.00,OVC,,0.00,0.0,WeatherDisplay:10.37,2013-04-29 01:06:00,
2013-04-28 21:11:00,60.1,40.9,30.09,South,169,1.2,1.2,49,0.00,OVC,,0.00,0.0,WeatherDisplay:10.37,2013-04-29 01:11:00,
2013-04-28 21:16:00,59.8,40.1,30.09,South,171,3.0,3.0,48,0.00,OVC,,0.00,0.0,WeatherDisplay:10.37,2013-04-29 01:16:00,
2013-04-28 21:21:00,59.9,39.1,30.09,SSW,202,3.5,3.5,46,0.00,OVC,,0.00,0.0,WeatherDisplay:10.37,2013-04-29 01:21:00,
2013-04-28 21:26:00,60.4,37.8,30.09,SSE,162,4.0,4.0,43,0.00,OVC,,0.00,0.0,WeatherDisplay:10.37,2013-04-29 01:26:00,
2013-04-28 21:31:00,60.7,38.6,30.09,SSE,155,2.3,2.3,44,0.00,OVC,,0.00,0.0,WeatherDisplay:10.37,2013-04-29 01:31:00,
2013-04-28 21:36:00,60.9,38.8,30.09,SSW,194,7.0,7.0,44,0.00,OVC,,0.00,0.0,WeatherDisplay:10.37,2013-04-29 01:36:00,
2013-04-28 21:41:00,60.9,38.8,30.09,SSE,154,2.3,2.3,44,0.00,OVC,,0.00,0.0,WeatherDisplay:10.37,2013-04-29 01:41:00,
2013-04-28 21:46:00,60.9,38.8,30.09,SSE,159,4.0,4.0,44,0.00,OVC,,0.00,0.0,WeatherDisplay:10.37,2013-04-29 01:46:00,
2013-04-28 21:51:00,61.0,37.1,30.09,SSE,162,7.0,7.0,41,0.00,OVC,,0.00,0.0,WeatherDisplay:10.37,2013-04-29 01:51:00,
2013-04-28 21:56:00,61.6,38.3,30.09,SSE,168,10.4,10.4,42,0.00,OVC,,0.00,0.0,WeatherDisplay:10.37,2013-04-29 01:56:00,
2013-04-28 22:01:00,61.8,37.2,30.09,SSW,195,4.0,4.0,40,0.00,OVC,,0.00,0.0,WeatherDisplay:10.37,2013-04-29 02:01:00,
2013-04-28 22:06:00,62.0,37.4,30.09,ESE,121,5.8,5.8,40,0.00,CLR,,0.00,0.0,WeatherDisplay:10.37,2013-04-29 02:06:00,
2013-04-28 22:11:00,62.0,37.4,30.10,SSE,148,3.5,3.5,40,0.00,CLR,,0.00,0.0,WeatherDisplay:10.37,2013-04-29 02:11:00,
2013-04-28 22:16:00,61.6,38.9,30.10,SSE,147,2.3,2.3,43,0.00,CLR,,0.00,0.0,WeatherDisplay:10.37,2013-04-29 02:16:00,
2013-04-28 22:21:00,61.3,37.4,30.10,SE,137,3.0,3.0,41,0.00,CLR,,0.00,0.0,WeatherDisplay:10.37,2013-04-29 02:21:00,
2013-04-28 22:26:00,61.0,37.1,30.10,SE,125,7.0,7.0,41,0.00,CLR,,0.00,0.0,WeatherDisplay:10.37,2013-04-29 02:26:00,
2013-04-28 22:31:00,60.7,38.1,30.10,SE,125,2.3,2.3,43,0.00,CLR,,0.00,0.0,WeatherDisplay:10.37,2013-04-29 02:31:00,
2013-04-28 22:36:00,60.5,39.6,30.10,SSE,151,3.5,3.5,46,0.00,CLR,,0.00,0.0,WeatherDisplay:10.37,2013-04-29 02:36:00,
2013-04-28 22:41:00,60.4,36.6,30.10,SW,215,5.8,5.8,41,0.00,CLR,,0.00,0.0,WeatherDisplay:10.37,2013-04-29 02:41:00,
2013-04-28 22:46:00,60.5,36.7,30.10,SE,124,2.0,2.0,41,0.00,CLR,,0.00,0.0,WeatherDisplay:10.37,2013-04-29 02:46:00,
2013-04-28 22:51:00,60.4,38.9,30.10,SE,138,1.2,1.2,45,0.00,CLR,,0.00,0.0,WeatherDisplay:10.37,2013-04-29 02:51:00,
2013-04-28 22:56:00,60.1,38.7,30.10,SE,138,0.0,0.0,45,0.00,CLR,,0.00,0.0,WeatherDisplay:10.37,2013-04-29 02:56:00,
2013-04-28 23:01:00,59.9,38.5,30.10,East,88,4.0,4.0,45,0.00,CLR,,0.00,0.0,WeatherDisplay:10.37,2013-04-29 03:01:00,
2013-04-28 23:06:00,59.6,37.6,30.10,SSE,163,2.3,2.3,44,0.00,CLR,,0.00,0.0,WeatherDisplay:10.37,2013-04-29 03:06:00,
2013-04-28 23:11:00,59.8,36.0,30.09,SE,146,4.0,4.0,41,0.00,CLR,,0.00,0.0,WeatherDisplay:10.37,2013-04-29 03:11:00,
2013-04-28 23:16:00,60.1,37.5,30.09,SSE,159,2.0,2.0,43,0.00,CLR,,0.00,0.0,WeatherDisplay:10.37,2013-04-29 03:16:00,
2013-04-28 23:21:00,60.2,38.8,30.09,SE,144,1.2,0.0,45,0.00,CLR,,0.00,0.0,WeatherDisplay:10.37,2013-04-29 03:21:00,
2013-04-28 23:26:00,60.2,37.0,30.09,SE,144,1.2,0.0,42,0.00,CLR,,0.00,0.0,WeatherDisplay:10.37,2013-04-29 03:26:00,
2013-04-28 23:31:00,60.5,36.7,30.09,SE,146,4.0,4.0,41,0.00,CLR,,0.00,0.0,WeatherDisplay:10.37,2013-04-29 03:31:00,
2013-04-28 23:36:00,60.5,36.7,30.09,SSE,148,4.0,4.0,41,0.00,CLR,,0.00,0.0,WeatherDisplay:10.37,2013-04-29 03:36:00,
2013-04-28 23:41:00,60.5,37.3,30.10,SE,132,3.5,3.5,42,0.00,CLR,,0.00,0.0,WeatherDisplay:10.37,2013-04-29 03:41:00,
2013-04-28 23:46:00,60.5,37.9,30.10,South,180,1.2,1.2,43,0.00,CLR,,0.00,0.0,WeatherDisplay:10.37,2013-04-29 03:46:00,
2013-04-28 23:51:00,60.2,38.2,30.10,SSE,151,4.0,4.0,44,0.00,CLR,,0.00,0.0,WeatherDisplay:10.37,2013-04-29 03:51:00,
2013-04-28 23:56:00,59.9,40.1,30.10,WSW,239,4.0,4.0,48,0.00,CLR,,0.00,0.0,WeatherDisplay:10.37,2013-04-29 03:56:00,